createdAt,value
2019-03-20T00:01:43.973Z,72.60
2019-03-20T00:04:14.461Z,75.00
2019-03-20T00:06:44.605Z,75.10
2019-03-20T00:09:14.954Z,74.80
2019-03-20T00:11:45.273Z,77.00
2019-03-20T00:14:15.541Z,76.50
2019-03-20T00:16:45.776Z,78.80
2019-03-20T00:19:16.046Z,79.10
2019-03-20T00:21:46.263Z,76.80
2019-03-20T00:24:16.485Z,77.50
2019-03-20T00:26:46.819Z,78.10
2019-03-20T00:29:17.099Z,80.80
2019-03-20T00:31:47.333Z,80.80
2019-03-20T00:34:17.594Z,77.60
2019-03-20T00:36:47.768Z,77.60
2019-03-20T00:39:18.143Z,78.40
2019-03-20T00:41:48.479Z,80.20
2019-03-20T00:44:18.836Z,81.70
2019-03-20T00:46:49.111Z,80.90
2019-03-20T00:49:19.355Z,77.30
2019-03-20T00:51:49.604Z,77.70
2019-03-20T00:54:19.771Z,76.10
2019-03-20T00:56:50.016Z,76.70
2019-03-20T00:59:20.179Z,78.90
2019-03-20T01:01:50.467Z,78.70
2019-03-20T01:04:20.606Z,78.60
2019-03-20T01:06:53.486Z,79.00
2019-03-20T01:09:23.683Z,76.20
2019-03-20T01:11:53.942Z,80.60
2019-03-20T01:14:24.220Z,79.80
2019-03-20T01:16:54.497Z,82.50
2019-03-20T01:19:24.809Z,77.80
2019-03-20T01:21:55.010Z,78.80
2019-03-20T01:24:25.272Z,79.00
2019-03-20T01:26:55.515Z,77.90
2019-03-20T01:29:25.808Z,79.80
2019-03-20T01:31:55.978Z,78.80
2019-03-20T01:34:26.146Z,78.20
2019-03-20T01:36:56.357Z,77.60
2019-03-20T01:39:26.593Z,77.30
2019-03-20T01:41:56.943Z,80.60
2019-03-20T01:44:27.074Z,79.60
2019-03-20T01:46:57.330Z,78.70
2019-03-20T01:49:27.677Z,77.20
2019-03-20T01:51:57.932Z,76.40
2019-03-20T01:54:28.238Z,76.10
2019-03-20T01:56:58.478Z,78.50
2019-03-20T01:59:28.636Z,76.40
2019-03-20T02:01:58.948Z,79.60
2019-03-20T02:04:29.238Z,81.30
2019-03-20T02:06:59.457Z,81.20
2019-03-20T02:09:29.728Z,82.90
2019-03-20T02:12:00.044Z,82.00
2019-03-20T02:14:30.282Z,79.30
2019-03-20T02:17:00.616Z,79.70
2019-03-20T02:19:30.904Z,76.80
2019-03-20T02:22:01.242Z,78.20
2019-03-20T02:24:31.410Z,77.20
2019-03-20T02:27:01.734Z,79.70
2019-03-20T02:29:32.048Z,79.30
2019-03-20T02:32:02.134Z,79.80
2019-03-20T02:34:32.376Z,79.90
2019-03-20T02:37:02.655Z,79.80
2019-03-20T02:39:32.997Z,79.40
2019-03-20T02:42:03.185Z,79.80
2019-03-20T02:44:33.547Z,80.10
2019-03-20T02:47:03.795Z,84.80
2019-03-20T02:49:34.191Z,80.50
2019-03-20T02:52:04.402Z,80.10
2019-03-20T02:54:34.695Z,87.60
2019-03-20T02:57:05.003Z,83.20
2019-03-20T02:59:35.370Z,80.00
2019-03-20T03:02:05.608Z,82.70
2019-03-20T03:04:35.747Z,82.50
2019-03-20T03:07:06.031Z,80.40
2019-03-20T03:09:36.196Z,82.50
2019-03-20T03:12:06.482Z,82.80
2019-03-20T03:14:36.665Z,80.30
2019-03-20T03:17:06.929Z,83.00
2019-03-20T03:19:37.108Z,82.70
2019-03-20T03:22:07.410Z,81.00
2019-03-20T03:24:37.564Z,79.30
2019-03-20T03:27:07.749Z,82.00
2019-03-20T03:29:37.972Z,80.00
2019-03-20T03:32:08.134Z,81.50
2019-03-20T03:34:38.361Z,85.40
2019-03-20T03:37:08.712Z,81.70
2019-03-20T03:39:38.914Z,79.80
2019-03-20T03:42:09.106Z,79.70
2019-03-20T03:44:39.362Z,80.10
2019-03-20T03:47:09.535Z,81.60
2019-03-20T03:49:39.864Z,80.00
2019-03-20T03:52:10.199Z,81.70
2019-03-20T03:54:40.471Z,83.90
2019-03-20T03:57:29.776Z,82.20
2019-03-20T04:00:00.185Z,79.50
2019-03-20T04:02:30.706Z,85.70
2019-03-20T04:05:00.879Z,87.30
2019-03-20T04:07:31.167Z,85.10
2019-03-20T04:10:01.344Z,80.10
2019-03-20T04:12:31.519Z,86.80
2019-03-20T04:15:01.721Z,82.30
2019-03-20T04:17:31.991Z,82.50
2019-03-20T04:20:02.135Z,82.40
2019-03-20T04:22:32.450Z,85.70
2019-03-20T04:25:02.597Z,86.50
2019-03-20T04:27:32.895Z,85.20
2019-03-20T04:30:03.027Z,83.00
2019-03-20T04:32:33.347Z,84.10
2019-03-20T04:35:03.656Z,80.40
2019-03-20T04:37:34.019Z,83.80
2019-03-20T04:40:04.514Z,87.80
2019-03-20T04:42:34.794Z,85.90
2019-03-20T04:45:05.533Z,82.50
2019-03-20T04:47:35.732Z,82.20
2019-03-20T04:50:06.875Z,84.70
2019-03-20T04:52:37.099Z,82.00
2019-03-20T04:55:07.767Z,83.10
2019-03-20T04:57:37.905Z,82.40
2019-03-20T05:00:10.359Z,90.90
2019-03-20T05:02:40.506Z,84.30
2019-03-20T05:05:10.813Z,87.90
2019-03-20T05:07:41.107Z,85.30
2019-03-20T05:10:12.210Z,89.20
2019-03-20T05:12:42.456Z,85.70
2019-03-20T05:15:12.903Z,85.40
2019-03-20T05:17:43.269Z,87.50
2019-03-20T05:20:13.880Z,83.80
2019-03-20T05:22:44.113Z,84.80
2019-03-20T05:25:14.403Z,88.70
2019-03-20T05:27:44.646Z,90.00
2019-03-20T05:30:14.850Z,84.70
2019-03-20T05:32:45.019Z,91.00
2019-03-20T05:35:34.273Z,88.10
2019-03-20T05:38:04.475Z,85.00
2019-03-20T05:40:34.782Z,84.30
2019-03-20T05:43:04.998Z,84.20
2019-03-20T05:45:35.277Z,84.80
2019-03-20T05:48:05.487Z,86.80
2019-03-20T05:50:35.749Z,87.50
2019-03-20T05:53:05.999Z,87.80
2019-03-20T05:55:36.315Z,90.40
2019-03-20T05:58:06.554Z,87.20
2019-03-20T06:00:36.849Z,88.30
2019-03-20T06:03:07.161Z,86.20
2019-03-20T06:05:37.427Z,86.20
2019-03-20T06:08:07.593Z,90.30
2019-03-20T06:10:37.775Z,86.70
2019-03-20T06:13:08.103Z,87.80
2019-03-20T06:15:38.267Z,84.60
2019-03-20T06:18:08.432Z,90.30
2019-03-20T06:20:38.587Z,87.80
2019-03-20T06:23:11.139Z,91.50
2019-03-20T06:25:40.707Z,93.00
2019-03-20T06:28:10.970Z,91.60
2019-03-20T06:30:41.225Z,91.70
2019-03-20T06:33:11.519Z,90.50
2019-03-20T06:35:41.669Z,89.00
2019-03-20T06:38:11.965Z,87.30
2019-03-20T06:40:42.115Z,91.40
2019-03-20T06:43:12.317Z,91.00
2019-03-20T06:45:42.663Z,90.70
2019-03-20T06:48:12.853Z,91.10
2019-03-20T06:50:43.131Z,91.40
2019-03-20T06:53:13.313Z,91.60
2019-03-20T06:55:43.635Z,90.70
2019-03-20T06:58:13.832Z,93.50
2019-03-20T07:01:11.072Z,94.60
2019-03-20T07:03:55.168Z,95.90
2019-03-20T07:07:18.666Z,92.70
2019-03-20T07:10:22.241Z,95.00
2019-03-20T07:12:52.435Z,93.10
2019-03-20T07:15:22.745Z,95.40
2019-03-20T07:17:53.030Z,93.00
2019-03-20T07:20:23.440Z,95.30
2019-03-20T07:22:53.753Z,91.70
2019-03-20T07:25:30.419Z,92.40
2019-03-20T07:28:00.702Z,92.50
2019-03-20T07:30:30.923Z,91.20
2019-03-20T07:33:01.269Z,91.80
2019-03-20T07:35:31.602Z,91.70
2019-03-20T07:38:01.948Z,92.30
2019-03-20T07:40:32.114Z,91.00
2019-03-20T07:43:08.724Z,91.40
2019-03-20T07:45:34.418Z,92.00
2019-03-20T07:48:04.644Z,92.70
2019-03-20T07:50:34.942Z,91.10
2019-03-20T07:53:05.092Z,92.60
2019-03-20T07:55:35.374Z,92.30
2019-03-20T07:58:05.706Z,91.40
2019-03-20T08:00:35.850Z,91.00
2019-03-20T08:03:06.062Z,91.40
2019-03-20T08:05:36.283Z,91.10
2019-03-20T08:08:07.789Z,90.90
2019-03-20T08:10:38.339Z,90.80
2019-03-20T08:13:08.492Z,90.90
2019-03-20T08:15:38.827Z,90.50
2019-03-20T08:18:09.210Z,90.60
2019-03-20T08:20:39.486Z,90.60
2019-03-20T08:23:09.642Z,90.60
2019-03-20T08:25:39.998Z,90.70
2019-03-20T08:28:10.292Z,90.50
2019-03-20T08:30:40.574Z,90.60
2019-03-20T08:33:10.897Z,90.00
2019-03-20T08:35:41.113Z,88.30
2019-03-20T08:38:18.180Z,90.00
2019-03-20T08:40:43.154Z,90.20
2019-03-20T08:43:13.462Z,89.40
2019-03-20T08:45:43.612Z,89.20
2019-03-20T08:48:13.903Z,89.80
2019-03-20T08:50:44.190Z,90.00
2019-03-20T08:53:14.484Z,90.00
2019-03-20T08:55:44.747Z,90.20
2019-03-20T08:58:15.103Z,90.20
2019-03-20T09:00:45.365Z,90.40
2019-03-20T09:03:15.562Z,90.10
2019-03-20T09:05:45.903Z,84.30
2019-03-20T09:08:16.147Z,86.00
2019-03-20T09:10:46.408Z,82.40
2019-03-20T09:13:16.570Z,82.10
2019-03-20T09:15:46.858Z,87.70
2019-03-20T09:18:17.125Z,87.60
2019-03-20T09:20:47.246Z,88.80
2019-03-20T09:23:17.427Z,80.40
2019-03-20T09:25:47.727Z,81.00
2019-03-20T09:28:17.928Z,87.30
2019-03-20T09:30:48.229Z,88.40
2019-03-20T09:33:18.530Z,88.30
2019-03-20T09:35:48.895Z,89.00
2019-03-20T09:38:19.122Z,87.10
2019-03-20T09:40:49.471Z,87.70
2019-03-20T09:43:19.745Z,88.60
2019-03-20T09:45:50.013Z,89.20
2019-03-20T09:48:20.284Z,89.30
2019-03-20T09:50:51.179Z,87.90
2019-03-20T09:53:21.461Z,79.80
2019-03-20T09:55:51.691Z,84.20
2019-03-20T09:58:21.998Z,81.90
2019-03-20T10:00:52.205Z,82.90
2019-03-20T10:03:22.376Z,87.30
2019-03-20T10:05:52.609Z,82.90
2019-03-20T10:08:22.939Z,78.90
2019-03-20T10:10:53.165Z,77.40
2019-03-20T10:13:23.339Z,68.30
2019-03-20T10:15:53.503Z,73.20
2019-03-20T10:18:23.861Z,82.50
2019-03-20T10:20:54.057Z,83.30
2019-03-20T10:23:24.367Z,75.10
2019-03-20T10:25:54.617Z,80.80
2019-03-20T10:28:24.895Z,82.50
2019-03-20T10:30:55.035Z,72.80
2019-03-20T10:33:25.351Z,76.10
2019-03-20T10:35:55.551Z,78.40
2019-03-20T10:38:25.791Z,81.80
2019-03-20T10:40:56.055Z,78.90
2019-03-20T10:43:26.340Z,73.20
2019-03-20T10:45:56.520Z,78.70
2019-03-20T10:48:26.839Z,79.00
2019-03-20T10:50:57.111Z,80.40
2019-03-20T10:53:27.404Z,75.30
2019-03-20T10:55:57.691Z,79.40
2019-03-20T10:58:28.015Z,80.00
2019-03-20T11:00:58.361Z,68.70
2019-03-20T11:03:28.696Z,73.30
2019-03-20T11:05:58.917Z,74.40
2019-03-20T11:08:29.211Z,72.30
2019-03-20T11:10:59.566Z,66.80
2019-03-20T11:13:29.725Z,78.80
2019-03-20T11:16:00.062Z,70.00
2019-03-20T11:18:30.286Z,64.60
2019-03-20T11:21:00.666Z,61.80
2019-03-20T11:23:30.844Z,62.90
2019-03-20T11:26:01.198Z,73.90
2019-03-20T11:28:31.481Z,67.10
2019-03-20T11:31:01.737Z,61.70
2019-03-20T11:33:31.887Z,66.00
2019-03-20T11:36:02.201Z,58.30
2019-03-20T11:38:32.415Z,55.40
2019-03-20T11:41:02.735Z,51.40
2019-03-20T11:43:33.079Z,59.50
2019-03-20T11:46:03.356Z,55.10
2019-03-20T11:48:33.607Z,64.40
2019-03-20T11:51:03.768Z,65.50
2019-03-20T11:53:33.975Z,56.50
2019-03-20T11:56:04.256Z,52.00
2019-03-20T11:58:34.599Z,54.00
2019-03-20T12:01:05.063Z,51.70
2019-03-20T12:03:35.383Z,53.10
2019-03-20T12:06:05.855Z,58.20
2019-03-20T12:08:36.029Z,53.50
2019-03-20T12:11:06.324Z,52.30
2019-03-20T12:13:36.580Z,53.60
2019-03-20T12:16:06.870Z,50.10
2019-03-20T12:18:37.178Z,46.00
2019-03-20T12:21:07.538Z,44.50
2019-03-20T12:23:37.726Z,44.80
2019-03-20T12:26:08.035Z,52.50
2019-03-20T12:28:38.238Z,50.30
2019-03-20T12:31:08.460Z,46.50
2019-03-20T12:33:38.726Z,46.20
2019-03-20T12:36:08.990Z,47.40
2019-03-20T12:38:39.286Z,42.20
2019-03-20T12:41:09.618Z,49.00
2019-03-20T12:43:39.998Z,44.00
2019-03-20T12:46:10.220Z,37.90
2019-03-20T12:48:40.565Z,43.80
2019-03-20T12:51:10.838Z,41.80
2019-03-20T12:53:41.188Z,43.70
2019-03-20T12:56:11.422Z,46.00
2019-03-20T12:58:41.806Z,41.40
2019-03-20T13:01:12.069Z,51.70
2019-03-20T13:03:42.360Z,40.60
2019-03-20T13:06:12.647Z,46.20
2019-03-20T13:08:42.979Z,37.30
2019-03-20T13:11:13.274Z,47.10
2019-03-20T13:13:43.638Z,38.50
2019-03-20T13:16:13.938Z,40.20
2019-03-20T13:18:44.267Z,54.20
2019-03-20T13:21:14.624Z,48.90
2019-03-20T13:23:44.804Z,49.20
2019-03-20T13:26:15.180Z,42.30
2019-03-20T13:28:45.348Z,45.90
2019-03-20T13:31:18.529Z,48.20
2019-03-20T13:33:49.336Z,48.20
2019-03-20T13:36:19.892Z,51.60
2019-03-20T13:38:50.182Z,44.70
2019-03-20T13:41:20.491Z,46.10
2019-03-20T13:43:50.705Z,45.90
2019-03-20T13:46:21.007Z,45.50
2019-03-20T13:48:51.308Z,45.50
2019-03-20T13:51:21.456Z,49.80
2019-03-20T13:53:51.764Z,40.10
2019-03-20T13:56:22.002Z,46.80
2019-03-20T13:58:52.475Z,46.20
2019-03-20T14:01:22.787Z,47.20
2019-03-20T14:03:53.053Z,49.20
2019-03-20T14:06:23.301Z,54.50
2019-03-20T14:08:53.669Z,43.10
2019-03-20T14:11:23.910Z,55.30
2019-03-20T14:13:54.215Z,53.90
2019-03-20T14:16:24.570Z,51.30
2019-03-20T14:18:54.914Z,53.30
2019-03-20T14:21:25.154Z,29.00
2019-03-20T14:23:55.371Z,42.10
2019-03-20T14:26:25.661Z,36.30
2019-03-20T14:28:55.944Z,40.10
2019-03-20T14:31:26.295Z,44.60
2019-03-20T14:33:56.586Z,39.80
2019-03-20T14:36:26.813Z,39.30
2019-03-20T14:38:57.046Z,37.00
2019-03-20T14:41:27.401Z,42.00
2019-03-20T14:43:57.730Z,42.00
2019-03-20T14:46:28.152Z,34.20
2019-03-20T14:48:58.338Z,40.70
2019-03-20T14:51:28.643Z,38.10
2019-03-20T14:53:59.033Z,39.60
2019-03-20T14:56:29.203Z,42.60
2019-03-20T14:58:59.559Z,42.60
2019-03-20T15:01:29.787Z,42.70
2019-03-20T15:04:00.078Z,42.70
2019-03-20T15:06:30.385Z,39.40
2019-03-20T15:09:00.686Z,41.50
2019-03-20T15:11:30.987Z,42.50
2019-03-20T15:14:01.229Z,40.40
2019-03-20T15:16:31.444Z,41.50
2019-03-20T15:19:01.777Z,41.20
2019-03-20T15:21:31.973Z,41.40
2019-03-20T15:24:02.385Z,44.50
2019-03-20T15:26:32.695Z,45.30
2019-03-20T15:29:02.947Z,47.30
2019-03-20T15:31:33.199Z,43.30
2019-03-20T15:34:03.402Z,42.20
2019-03-20T15:36:33.715Z,41.60
2019-03-20T15:39:05.389Z,45.20
2019-03-20T15:41:35.548Z,44.90
2019-03-20T15:44:05.776Z,44.10
2019-03-20T15:46:36.112Z,44.70
2019-03-20T15:49:06.459Z,41.00
2019-03-20T15:51:36.614Z,36.90
2019-03-20T15:54:06.905Z,45.50
2019-03-20T15:56:37.120Z,46.10
2019-03-20T15:59:07.361Z,46.00
2019-03-20T16:01:37.644Z,46.10
2019-03-20T16:04:07.996Z,46.70
2019-03-20T16:06:38.287Z,44.60
2019-03-20T16:09:09.540Z,46.40
2019-03-20T16:11:39.799Z,47.10
2019-03-20T16:14:09.997Z,46.80
2019-03-20T16:16:40.197Z,44.90
2019-03-20T16:19:10.427Z,46.30
2019-03-20T16:21:40.735Z,44.60
2019-03-20T16:24:10.998Z,42.20
2019-03-20T16:26:41.176Z,43.90
2019-03-20T16:29:11.363Z,44.50
2019-03-20T16:31:41.647Z,43.50
2019-03-20T16:34:11.978Z,45.70
2019-03-20T16:36:42.294Z,45.70
2019-03-20T16:39:12.453Z,42.80
2019-03-20T16:41:42.766Z,43.30
2019-03-20T16:44:13.012Z,45.60
2019-03-20T16:46:44.761Z,45.90
2019-03-20T16:49:15.104Z,45.60
2019-03-20T16:51:45.407Z,45.70
2019-03-20T16:54:15.700Z,45.70
2019-03-20T16:56:45.983Z,46.30
2019-03-20T16:59:16.212Z,42.90
2019-03-20T17:01:46.498Z,44.80
2019-03-20T17:04:16.780Z,43.60
2019-03-20T17:06:47.126Z,46.30
2019-03-20T17:09:17.422Z,45.70
2019-03-20T17:11:47.714Z,45.30
2019-03-20T17:14:20.247Z,45.80
2019-03-20T17:16:49.982Z,46.40
2019-03-20T17:19:20.342Z,46.80
2019-03-20T17:21:50.572Z,47.10
2019-03-20T17:24:20.884Z,46.50
2019-03-20T17:26:51.183Z,46.90
2019-03-20T17:29:21.528Z,46.70
2019-03-20T17:31:51.719Z,45.70
2019-03-20T17:34:21.980Z,46.20
2019-03-20T17:36:52.332Z,46.60
2019-03-20T17:39:22.585Z,45.90
2019-03-20T17:41:52.775Z,47.00
2019-03-20T17:44:22.963Z,46.90
2019-03-20T17:46:53.292Z,46.80
2019-03-20T17:49:23.692Z,47.30
2019-03-20T17:51:54.038Z,47.20
2019-03-20T17:54:24.358Z,47.00
2019-03-20T17:57:03.664Z,47.30
2019-03-20T17:59:33.973Z,47.40
2019-03-20T18:02:04.338Z,47.10
2019-03-20T18:04:34.617Z,47.30
2019-03-20T18:07:04.916Z,47.60
2019-03-20T18:09:35.216Z,47.60
2019-03-20T18:12:05.807Z,47.80
2019-03-20T18:14:36.153Z,48.80
2019-03-20T18:17:06.388Z,48.70
2019-03-20T18:19:36.608Z,49.00
2019-03-20T18:22:06.837Z,49.10
2019-03-20T18:24:37.273Z,49.30
2019-03-20T18:27:07.554Z,49.40
2019-03-20T18:29:37.812Z,49.50
2019-03-20T18:32:08.094Z,49.40
2019-03-20T18:34:38.404Z,49.90
2019-03-20T18:37:08.733Z,50.30
2019-03-20T18:39:39.032Z,49.70
2019-03-20T18:42:09.637Z,50.20
2019-03-20T18:44:40.109Z,50.20
2019-03-20T18:47:10.440Z,50.70
2019-03-20T18:49:40.808Z,50.60
2019-03-20T18:52:11.178Z,50.50
2019-03-20T18:54:41.406Z,50.40
2019-03-20T18:57:11.759Z,50.40
2019-03-20T18:59:42.004Z,50.30
2019-03-20T19:02:12.370Z,50.80
2019-03-20T19:04:42.733Z,50.30
2019-03-20T19:07:13.090Z,50.30
2019-03-20T19:09:43.465Z,51.00
2019-03-20T19:12:13.862Z,50.50
2019-03-20T19:14:44.149Z,50.80
2019-03-20T19:17:14.358Z,50.50
2019-03-20T19:19:44.639Z,51.40
2019-03-20T19:22:14.932Z,51.30
2019-03-20T19:24:45.079Z,51.30
2019-03-20T19:27:15.339Z,51.50
2019-03-20T19:29:45.726Z,51.40
2019-03-20T19:32:15.959Z,51.30
2019-03-20T19:34:46.317Z,52.80
2019-03-20T19:37:16.548Z,52.30
2019-03-20T19:39:46.866Z,52.10
2019-03-20T19:42:20.204Z,52.20
2019-03-20T19:44:49.156Z,52.60
2019-03-20T19:47:19.577Z,53.10
2019-03-20T19:49:49.844Z,53.30
2019-03-20T19:52:20.169Z,53.50
2019-03-20T19:54:50.463Z,54.60
2019-03-20T19:57:20.805Z,52.10
2019-03-20T19:59:51.008Z,51.80
2019-03-20T20:02:21.307Z,52.20
2019-03-20T20:04:51.610Z,52.80
2019-03-20T20:07:21.921Z,52.00
2019-03-20T20:09:52.241Z,53.10
2019-03-20T20:12:30.890Z,53.10
2019-03-20T20:14:54.582Z,52.80
2019-03-20T20:17:24.844Z,54.40
2019-03-20T20:19:55.089Z,55.10
2019-03-20T20:22:25.343Z,54.80
2019-03-20T20:24:55.524Z,52.80
2019-03-20T20:27:25.717Z,53.60
2019-03-20T20:29:55.967Z,54.60
2019-03-20T20:32:26.213Z,54.40
2019-03-20T20:34:56.654Z,54.10
2019-03-20T20:37:26.929Z,54.70
2019-03-20T20:39:57.289Z,57.00
2019-03-20T20:42:27.639Z,54.40
2019-03-20T20:44:57.973Z,55.70
2019-03-20T20:47:28.254Z,54.00
2019-03-20T20:49:58.535Z,57.30
2019-03-20T20:52:28.843Z,53.70
2019-03-20T20:54:59.182Z,54.50
2019-03-20T20:57:29.468Z,53.50
2019-03-20T20:59:59.737Z,53.30
2019-03-20T21:02:29.959Z,55.20
2019-03-20T21:05:00.347Z,53.50
2019-03-20T21:07:30.639Z,53.40
2019-03-20T21:10:00.909Z,54.40
2019-03-20T21:12:31.255Z,54.80
2019-03-20T21:15:01.450Z,56.60
2019-03-20T21:17:42.329Z,53.80
2019-03-20T21:20:13.189Z,54.10
2019-03-20T21:23:27.756Z,55.60
2019-03-20T21:25:59.916Z,55.20
2019-03-20T21:29:12.661Z,55.20
2019-03-20T21:31:50.467Z,56.10
2019-03-20T21:35:10.815Z,56.10
2019-03-20T21:38:04.227Z,59.20
2019-03-20T21:41:03.743Z,57.20
2019-03-20T21:44:15.086Z,57.30
2019-03-20T21:47:31.748Z,54.00
2019-03-20T21:50:24.694Z,54.50
2019-03-20T21:52:55.473Z,56.50
2019-03-20T21:56:02.619Z,58.80
2019-03-20T21:58:44.933Z,60.90
2019-03-20T22:01:39.697Z,57.40
2019-03-20T22:04:10.598Z,59.90
2019-03-20T22:07:07.945Z,56.80
2019-03-20T22:10:33.100Z,58.50
2019-03-20T22:13:35.345Z,56.40
2019-03-20T22:16:52.954Z,58.70
2019-03-20T22:19:47.418Z,58.40
2019-03-20T22:22:43.593Z,57.40
2019-03-20T22:25:29.543Z,57.70
2019-03-20T22:28:55.288Z,58.60
2019-03-20T22:31:26.185Z,60.10
2019-03-20T22:34:32.430Z,59.40
2019-03-20T22:37:03.261Z,56.90
2019-03-20T22:40:35.868Z,56.40
2019-03-20T22:43:30.118Z,58.00
2019-03-20T22:46:31.864Z,61.40
2019-03-20T22:50:00.652Z,61.50
2019-03-20T22:53:12.373Z,60.90
2019-03-20T22:56:29.835Z,65.80
2019-03-20T22:59:00.479Z,62.80
2019-03-20T23:01:59.679Z,61.40
2019-03-20T23:04:40.533Z,60.60
2019-03-20T23:07:11.411Z,59.10
2019-03-20T23:09:42.132Z,59.00
2019-03-20T23:12:17.663Z,59.10
2019-03-20T23:14:47.619Z,69.00
2019-03-20T23:17:18.562Z,60.60
2019-03-20T23:19:50.363Z,61.00
2019-03-20T23:22:21.088Z,59.90
2019-03-20T23:24:51.961Z,64.80
2019-03-20T23:27:30.499Z,61.00
2019-03-20T23:30:02.122Z,61.00
2019-03-20T23:32:32.906Z,61.50
2019-03-20T23:35:03.725Z,62.60
2019-03-20T23:37:34.437Z,63.10
2019-03-20T23:40:06.437Z,62.00
2019-03-20T23:42:37.148Z,61.50
2019-03-20T23:45:09.643Z,59.90
2019-03-20T23:48:03.526Z,61.80
2019-03-20T23:50:34.214Z,62.40
2019-03-20T23:53:04.947Z,64.30
2019-03-20T23:55:35.679Z,62.80
2019-03-20T23:58:12.495Z,62.90
